sensor_id;sensor_type;location;lat;lon;timestamp;pressure;altitude;pressure_sealevel;temperature;humidity
13604;BME280;24578;48.264;11.436;2023-01-30T00:02:18;96718.44;;;-4.84;100.00
13604;BME280;24578;48.264;11.436;2023-01-30T00:05:18;96727.72;;;-4.89;100.00
13604;BME280;24578;48.264;11.436;2023-01-30T00:08:19;96715.06;;;-4.83;100.00
13604;BME280;24578;48.264;11.436;2023-01-30T00:11:22;96714.22;;;-4.90;100.00
13604;BME280;24578;48.264;11.436;2023-01-30T00:14:22;96704.13;;;-4.90;100.00
13604;BME280;24578;48.264;11.436;2023-01-30T00:17:23;96698.28;;;-5.01;100.00
13604;BME280;24578;48.264;11.436;2023-01-30T00:20:23;96693.22;;;-5.01;100.00
13604;BME280;24578;48.264;11.436;2023-01-30T00:23:25;96678.09;;;-5.01;100.00
13604;BME280;24578;48.264;11.436;2023-01-30T00:26:26;96690.72;;;-5.01;100.00
13604;BME280;24578;48.264;11.436;2023-01-30T00:29:27;96694.91;;;-4.95;100.00
13604;BME280;24578;48.264;11.436;2023-01-30T00:32:27;96683.09;;;-4.93;100.00
13604;BME280;24578;48.264;11.436;2023-01-30T00:35:28;96684.75;;;-4.87;100.00
13604;BME280;24578;48.264;11.436;2023-01-30T00:38:28;96665.44;;;-4.92;100.00
13604;BME280;24578;48.264;11.436;2023-01-30T00:41:29;96668.78;;;-4.94;100.00
13604;BME280;24578;48.264;11.436;2023-01-30T00:44:50;96657.03;;;-5.00;100.00
13604;BME280;24578;48.264;11.436;2023-01-30T00:48:09;96657.84;;;-4.87;100.00
13604;BME280;24578;48.264;11.436;2023-01-30T00:51:09;96641.81;;;-4.84;100.00
13604;BME280;24578;48.264;11.436;2023-01-30T00:54:10;96629.97;;;-4.73;100.00
13604;BME280;24578;48.264;11.436;2023-01-30T00:57:11;96640.13;;;-4.85;100.00
13604;BME280;24578;48.264;11.436;2023-01-30T01:00:12;96632.56;;;-4.85;100.00
13604;BME280;24578;48.264;11.436;2023-01-30T01:03:12;96644.38;;;-4.92;100.00
13604;BME280;24578;48.264;11.436;2023-01-30T01:06:13;96643.53;;;-4.94;100.00
13604;BME280;24578;48.264;11.436;2023-01-30T01:09:13;96623.34;;;-4.96;100.00
13604;BME280;24578;48.264;11.436;2023-01-30T01:12:14;96640.19;;;-4.96;100.00
13604;BME280;24578;48.264;11.436;2023-01-30T01:15:14;96645.22;;;-4.92;100.00
13604;BME280;24578;48.264;11.436;2023-01-30T01:18:15;96642.69;;;-4.90;100.00
13604;BME280;24578;48.264;11.436;2023-01-30T01:21:16;96645.22;;;-4.87;100.00
13604;BME280;24578;48.264;11.436;2023-01-30T01:24:17;96635.06;;;-4.82;100.00
13604;BME280;24578;48.264;11.436;2023-01-30T01:27:18;96641.84;;;-4.92;100.00
13604;BME280;24578;48.264;11.436;2023-01-30T01:30:19;96630.09;;;-4.98;100.00
13604;BME280;24578;48.264;11.436;2023-01-30T01:33:19;96630.91;;;-4.94;100.00
13604;BME280;24578;48.264;11.436;2023-01-30T01:36:20;96621.66;;;-4.91;100.00
13604;BME280;24578;48.264;11.436;2023-01-30T01:39:22;96622.50;;;-4.96;100.00
13604;BME280;24578;48.264;11.436;2023-01-30T01:42:25;96610.72;;;-4.97;100.00
13604;BME280;24578;48.264;11.436;2023-01-30T01:45:28;96602.31;;;-4.95;100.00
13604;BME280;24578;48.264;11.436;2023-01-30T01:48:44;96602.31;;;-4.95;100.00
13604;BME280;24578;48.264;11.436;2023-01-30T01:51:56;96609.91;;;-4.98;100.00
13604;BME280;24578;48.264;11.436;2023-01-30T01:55:01;96608.28;;;-5.08;100.00
13604;BME280;24578;48.264;11.436;2023-01-30T01:58:18;96616.69;;;-5.06;100.00
13604;BME280;24578;48.264;11.436;2023-01-30T02:01:21;96618.31;;;-5.02;100.00
13604;BME280;24578;48.264;11.436;2023-01-30T02:04:24;96615.81;;;-5.00;100.00
13604;BME280;24578;48.264;11.436;2023-01-30T02:08:05;96620.00;;;-5.01;100.00
13604;BME280;24578;48.264;11.436;2023-01-30T02:14:23;96626.75;;;-5.03;100.00
13604;BME280;24578;48.264;11.436;2023-01-30T02:17:24;96625.06;;;-5.01;100.00
13604;BME280;24578;48.264;11.436;2023-01-30T02:27:44;96624.25;;;-5.11;100.00
13604;BME280;24578;48.264;11.436;2023-01-30T02:34:51;96624.28;;;-5.12;100.00
13604;BME280;24578;48.264;11.436;2023-01-30T02:38:33;96620.06;;;-5.13;100.00
13604;BME280;24578;48.264;11.436;2023-01-30T02:45:05;96616.66;;;-4.98;100.00
13604;BME280;24578;48.264;11.436;2023-01-30T02:48:19;96622.50;;;-4.96;100.00
13604;BME280;24578;48.264;11.436;2023-01-30T02:51:27;96627.59;;;-5.01;100.00
13604;BME280;24578;48.264;11.436;2023-01-30T02:54:29;96633.53;;;-5.11;100.00
13604;BME280;24578;48.264;11.436;2023-01-30T02:57:29;96637.72;;;-5.10;100.00
13604;BME280;24578;48.264;11.436;2023-01-30T03:01:02;96629.28;;;-5.08;100.00
13604;BME280;24578;48.264;11.436;2023-01-30T03:07:44;96640.25;;;-5.07;100.00
13604;BME280;24578;48.264;11.436;2023-01-30T03:10:54;96637.69;;;-5.01;100.00
13604;BME280;24578;48.264;11.436;2023-01-30T03:14:07;96603.19;;;-5.05;100.00
13604;BME280;24578;48.264;11.436;2023-01-30T03:17:14;96586.34;;;-5.03;100.00
13604;BME280;24578;48.264;11.436;2023-01-30T03:20:19;96595.50;;;-4.83;100.00
13604;BME280;24578;48.264;11.436;2023-01-30T03:23:19;96598.09;;;-4.93;100.00
13604;BME280;24578;48.264;11.436;2023-01-30T03:26:25;96606.53;;;-4.94;100.00
13604;BME280;24578;48.264;11.436;2023-01-30T03:29:28;96593.91;;;-4.97;100.00
13604;BME280;24578;48.264;11.436;2023-01-30T03:32:28;96596.34;;;-4.84;100.00
13604;BME280;24578;48.264;11.436;2023-01-30T03:35:29;96603.06;;;-4.80;100.00
13604;BME280;24578;48.264;11.436;2023-01-30T03:38:30;96599.81;;;-4.99;100.00
13604;BME280;24578;48.264;11.436;2023-01-30T03:41:30;96589.69;;;-4.98;100.00
13604;BME280;24578;48.264;11.436;2023-01-30T03:44:31;96598.97;;;-5.03;100.00
13604;BME280;24578;48.264;11.436;2023-01-30T03:47:32;96583.72;;;-4.83;100.00
13604;BME280;24578;48.264;11.436;2023-01-30T03:50:32;96584.59;;;-4.84;100.00
13604;BME280;24578;48.264;11.436;2023-01-30T03:53:33;96590.50;;;-4.94;100.00
13604;BME280;24578;48.264;11.436;2023-01-30T03:56:33;96585.47;;;-4.96;100.00
13604;BME280;24578;48.264;11.436;2023-01-30T03:59:34;96595.56;;;-4.91;100.00
13604;BME280;24578;48.264;11.436;2023-01-30T04:02:34;96569.41;;;-4.82;100.00
13604;BME280;24578;48.264;11.436;2023-01-30T04:05:35;96604.78;;;-4.85;100.00
13604;BME280;24578;48.264;11.436;2023-01-30T04:08:35;96606.44;;;-4.78;100.00
13604;BME280;24578;48.264;11.436;2023-01-30T04:11:36;96587.81;;;-4.66;100.00
13604;BME280;24578;48.264;11.436;2023-01-30T04:14:36;96592.88;;;-4.66;100.00
13604;BME280;24578;48.264;11.436;2023-01-30T04:17:37;96592.88;;;-4.62;100.00
13604;BME280;24578;48.264;11.436;2023-01-30T04:20:38;96564.97;;;-4.51;100.00
13604;BME280;24578;48.264;11.436;2023-01-30T04:23:39;96582.59;;;-4.38;100.00
13604;BME280;24578;48.264;11.436;2023-01-30T04:26:40;96581.75;;;-4.37;100.00
13604;BME280;24578;48.264;11.436;2023-01-30T04:29:40;96585.91;;;-4.33;100.00
13604;BME280;24578;48.264;11.436;2023-01-30T04:32:41;96564.66;;;-4.12;100.00
13604;BME280;24578;48.264;11.436;2023-01-30T04:35:53;96554.44;;;-3.98;100.00
13604;BME280;24578;48.264;11.436;2023-01-30T04:38:54;96529.19;;;-4.03;100.00
13604;BME280;24578;48.264;11.436;2023-01-30T04:41:58;96523.00;;;-3.77;100.00
13604;BME280;24578;48.264;11.436;2023-01-30T04:44:59;96513.75;;;-3.78;100.00
13604;BME280;24578;48.264;11.436;2023-01-30T04:47:59;96535.06;;;-3.98;100.00
13604;BME280;24578;48.264;11.436;2023-01-30T04:51:00;96539.28;;;-4.01;100.00
13604;BME280;24578;48.264;11.436;2023-01-30T04:54:00;96547.84;;;-4.13;100.00
13604;BME280;24578;48.264;11.436;2023-01-30T04:57:01;96527.47;;;-4.02;100.00
13604;BME280;24578;48.264;11.436;2023-01-30T05:00:02;96515.66;;;-4.00;100.00
13604;BME280;24578;48.264;11.436;2023-01-30T05:03:03;96506.28;;;-3.90;100.00
13604;BME280;24578;48.264;11.436;2023-01-30T05:06:04;96513.84;;;-3.84;100.00
13604;BME280;24578;48.264;11.436;2023-01-30T05:09:05;96513.16;;;-4.03;100.00
13604;BME280;24578;48.264;11.436;2023-01-30T05:12:05;96493.75;;;-4.00;100.00
13604;BME280;24578;48.264;11.436;2023-01-30T05:15:06;96510.66;;;-4.05;100.00
13604;BME280;24578;48.264;11.436;2023-01-30T05:18:07;96520.81;;;-4.06;100.00
13604;BME280;24578;48.264;11.436;2023-01-30T05:21:11;96515.75;;;-4.11;100.00
13604;BME280;24578;48.264;11.436;2023-01-30T05:24:12;96508.88;;;-3.97;100.00
13604;BME280;24578;48.264;11.436;2023-01-30T05:27:12;96502.16;;;-3.98;100.00
13604;BME280;24578;48.264;11.436;2023-01-30T05:30:13;96520.75;;;-4.02;100.00
13604;BME280;24578;48.264;11.436;2023-01-30T05:33:13;96519.97;;;-4.08;100.00
13604;BME280;24578;48.264;11.436;2023-01-30T05:36:16;96505.56;;;-4.03;100.00
13604;BME280;24578;48.264;11.436;2023-01-30T05:39:17;96514.06;;;-4.07;100.00
13604;BME280;24578;48.264;11.436;2023-01-30T05:42:17;96514.00;;;-4.01;100.00
13604;BME280;24578;48.264;11.436;2023-01-30T05:45:18;96514.75;;;-3.94;100.00
13604;BME280;24578;48.264;11.436;2023-01-30T05:48:19;96503.78;;;-3.92;100.00
13604;BME280;24578;48.264;11.436;2023-01-30T05:51:21;96504.63;;;-3.90;100.00
13604;BME280;24578;48.264;11.436;2023-01-30T05:54:22;96496.19;;;-3.92;100.00
13604;BME280;24578;48.264;11.436;2023-01-30T05:57:23;96506.28;;;-3.87;100.00
13604;BME280;24578;48.264;11.436;2023-01-30T06:00:23;96499.50;;;-3.85;100.00
13604;BME280;24578;48.264;11.436;2023-01-30T06:03:24;96491.13;;;-3.90;100.00
13604;BME280;24578;48.264;11.436;2023-01-30T06:06:24;96499.50;;;-3.87;100.00
13604;BME280;24578;48.264;11.436;2023-01-30T06:09:25;96491.09;;;-3.87;100.00
13604;BME280;24578;48.264;11.436;2023-01-30T06:12:25;96496.91;;;-3.80;100.00
13604;BME280;24578;48.264;11.436;2023-01-30T06:15:26;96511.06;;;-3.65;100.00
13604;BME280;24578;48.264;11.436;2023-01-30T06:18:27;96523.69;;;-3.61;100.00
13604;BME280;24578;48.264;11.436;2023-01-30T06:21:28;96514.31;;;-3.53;100.00
13604;BME280;24578;48.264;11.436;2023-01-30T06:24:28;96508.34;;;-3.48;100.00
13604;BME280;24578;48.264;11.436;2023-01-30T06:27:29;96500.81;;;-3.55;100.00
13604;BME280;24578;48.264;11.436;2023-01-30T06:30:29;96509.31;;;-3.57;100.00
13604;BME280;24578;48.264;11.436;2023-01-30T06:33:30;96515.88;;;-3.44;100.00
13604;BME280;24578;48.264;11.436;2023-01-30T06:36:31;96502.28;;;-3.35;100.00
13604;BME280;24578;48.264;11.436;2023-01-30T06:39:32;96508.00;;;-3.21;100.00
13604;BME280;24578;48.264;11.436;2023-01-30T06:42:32;96517.06;;;-3.04;100.00
13604;BME280;24578;48.264;11.436;2023-01-30T06:45:33;96517.81;;;-2.97;100.00
13604;BME280;24578;48.264;11.436;2023-01-30T06:48:33;96511.00;;;-2.94;100.00
13604;BME280;24578;48.264;11.436;2023-01-30T06:51:34;96510.78;;;-2.78;100.00
13604;BME280;24578;48.264;11.436;2023-01-30T06:54:34;96519.28;;;-2.81;100.00
13604;BME280;24578;48.264;11.436;2023-01-30T06:57:35;96515.75;;;-2.72;100.00
13604;BME280;24578;48.264;11.436;2023-01-30T07:00:37;96508.97;;;-2.70;100.00
13604;BME280;24578;48.264;11.436;2023-01-30T07:03:39;96513.72;;;-2.50;100.00
13604;BME280;24578;48.264;11.436;2023-01-30T07:06:39;96498.56;;;-2.51;100.00
13604;BME280;24578;48.264;11.436;2023-01-30T07:09:40;96505.22;;;-2.46;100.00
13604;BME280;24578;48.264;11.436;2023-01-30T07:12:40;96507.75;;;-2.47;100.00
13604;BME280;24578;48.264;11.436;2023-01-30T07:15:41;96517.84;;;-2.42;100.00
13604;BME280;24578;48.264;11.436;2023-01-30T07:18:42;96513.47;;;-2.34;100.00
13604;BME280;24578;48.264;11.436;2023-01-30T07:21:42;96507.75;;;-2.46;100.00
13604;BME280;24578;48.264;11.436;2023-01-30T07:24:43;96504.19;;;-2.35;100.00
13604;BME280;24578;48.264;11.436;2023-01-30T07:27:52;96493.91;;;-2.26;100.00
13604;BME280;24578;48.264;11.436;2023-01-30T07:30:53;96499.53;;;-2.10;100.00
13604;BME280;24578;48.264;11.436;2023-01-30T07:33:54;96486.38;;;-1.84;100.00
13604;BME280;24578;48.264;11.436;2023-01-30T07:36:54;96470.34;;;-1.86;100.00
13604;BME280;24578;48.264;11.436;2023-01-30T07:39:55;96472.75;;;-1.78;100.00
13604;BME280;24578;48.264;11.436;2023-01-30T07:45:56;96479.09;;;-1.57;100.00
13604;BME280;24578;48.264;11.436;2023-01-30T07:48:56;96467.00;;;-1.45;100.00
13604;BME280;24578;48.264;11.436;2023-01-30T07:51:57;96465.84;;;-1.30;100.00
13604;BME280;24578;48.264;11.436;2023-01-30T07:54:58;96454.94;;;-1.35;100.00
13604;BME280;24578;48.264;11.436;2023-01-30T07:57:58;96461.75;;;-1.38;100.00
13604;BME280;24578;48.264;11.436;2023-01-30T08:00:59;96453.09;;;-1.27;100.00
13604;BME280;24578;48.264;11.436;2023-01-30T08:03:59;96449.94;;;-1.01;100.00
13604;BME280;24578;48.264;11.436;2023-01-30T08:07:00;96448.25;;;-1.00;100.00
13604;BME280;24578;48.264;11.436;2023-01-30T08:10:00;96452.19;;;-1.25;100.00
13604;BME280;24578;48.264;11.436;2023-01-30T08:13:01;96438.31;;;-1.10;100.00
13604;BME280;24578;48.264;11.436;2023-01-30T08:16:04;96442.69;;;-1.16;100.00
13604;BME280;24578;48.264;11.436;2023-01-30T08:19:05;96435.16;;;-1.21;100.00
13604;BME280;24578;48.264;11.436;2023-01-30T08:22:06;96428.56;;;-1.28;100.00
13604;BME280;24578;48.264;11.436;2023-01-30T08:25:06;96432.78;;;-1.29;100.00
13604;BME280;24578;48.264;11.436;2023-01-30T08:28:07;96432.47;;;-0.77;100.00
13604;BME280;24578;48.264;11.436;2023-01-30T08:31:09;96427.25;;;-0.05;100.00
13604;BME280;24578;48.264;11.436;2023-01-30T08:34:10;96410.09;;;0.34;100.00
13604;BME280;24578;48.264;11.436;2023-01-30T08:37:10;96402.47;;;0.90;100.00
13604;BME280;24578;48.264;11.436;2023-01-30T08:40:11;96409.38;;;1.41;100.00
13604;BME280;24578;48.264;11.436;2023-01-30T08:43:12;96414.53;;;1.39;99.52
13604;BME280;24578;48.264;11.436;2023-01-30T08:46:12;96408.06;;;2.28;94.92
13604;BME280;24578;48.264;11.436;2023-01-30T08:49:13;96396.50;;;2.88;88.73
13604;BME280;24578;48.264;11.436;2023-01-30T08:52:13;96388.28;;;2.57;88.76
13604;BME280;24578;48.264;11.436;2023-01-30T08:55:14;96387.41;;;2.57;90.10
13604;BME280;24578;48.264;11.436;2023-01-30T08:58:14;96370.59;;;4.20;82.06
13604;BME280;24578;48.264;11.436;2023-01-30T09:01:15;96375.13;;;5.60;70.49
13604;BME280;24578;48.264;11.436;2023-01-30T09:04:16;96377.53;;;5.63;67.52
13604;BME280;24578;48.264;11.436;2023-01-30T09:07:16;96379.34;;;6.46;63.60
13604;BME280;24578;48.264;11.436;2023-01-30T09:10:17;96369.69;;;7.13;58.42
13604;BME280;24578;48.264;11.436;2023-01-30T09:13:18;96357.81;;;6.95;55.28
13604;BME280;24578;48.264;11.436;2023-01-30T09:16:18;96372.56;;;7.23;55.72
13604;BME280;24578;48.264;11.436;2023-01-30T09:19:25;96368.69;;;7.61;50.82
13604;BME280;24578;48.264;11.436;2023-01-30T09:22:26;96369.69;;;6.33;58.24
13604;BME280;24578;48.264;11.436;2023-01-30T09:25:27;96376.59;;;4.38;61.29
13604;BME280;24578;48.264;11.436;2023-01-30T09:28:28;96397.34;;;3.31;66.05
13604;BME280;24578;48.264;11.436;2023-01-30T09:31:28;96409.22;;;2.67;72.39
13604;BME280;24578;48.264;11.436;2023-01-30T09:34:30;96401.69;;;2.40;75.77
13604;BME280;24578;48.264;11.436;2023-01-30T09:37:30;96395.72;;;2.40;73.25
13604;BME280;24578;48.264;11.436;2023-01-30T09:40:31;96386.13;;;2.47;73.70
13604;BME280;24578;48.264;11.436;2023-01-30T09:50:07;96395.41;;;3.37;66.77
13604;BME280;24578;48.264;11.436;2023-01-30T09:53:33;96388.06;;;2.86;71.35
13604;BME280;24578;48.264;11.436;2023-01-30T09:56:36;96370.31;;;3.03;69.82
13604;BME280;24578;48.264;11.436;2023-01-30T10:00:33;96363.94;;;2.25;75.62
13604;BME280;24578;48.264;11.436;2023-01-30T10:03:09;96352.66;;;4.20;66.56
13604;BME280;24578;48.264;11.436;2023-01-30T10:06:13;96356.94;;;5.98;57.83
13604;BME280;24578;48.264;11.436;2023-01-30T10:09:27;96359.53;;;7.41;52.28
13604;BME280;24578;48.264;11.436;2023-01-30T10:16:18;96330.06;;;8.19;50.53
13604;BME280;24578;48.264;11.436;2023-01-30T10:26:00;96294.56;;;9.71;45.24
13604;BME280;24578;48.264;11.436;2023-01-30T10:29:17;96280.91;;;9.82;45.59
13604;BME280;24578;48.264;11.436;2023-01-30T10:32:26;96269.44;;;9.08;47.18
13604;BME280;24578;48.264;11.436;2023-01-30T10:35:33;96282.78;;;7.76;49.91
13604;BME280;24578;48.264;11.436;2023-01-30T10:38:46;96294.06;;;5.72;56.67
13604;BME280;24578;48.264;11.436;2023-01-30T10:42:10;96314.63;;;4.66;61.51
13604;BME280;24578;48.264;11.436;2023-01-30T10:45:23;96290.78;;;3.89;66.74
13604;BME280;24578;48.264;11.436;2023-01-30T10:48:50;96297.94;;;3.62;70.54
13604;BME280;24578;48.264;11.436;2023-01-30T10:58:40;96292.06;;;2.99;76.66
13604;BME280;24578;48.264;11.436;2023-01-30T11:01:54;96283.47;;;2.80;80.49
13604;BME280;24578;48.264;11.436;2023-01-30T11:04:59;96299.56;;;2.82;83.24
13604;BME280;24578;48.264;11.436;2023-01-30T11:08:01;96289.28;;;3.04;81.96
13604;BME280;24578;48.264;11.436;2023-01-30T11:11:54;96268.00;;;3.83;77.62
13604;BME280;24578;48.264;11.436;2023-01-30T11:18:04;96245.84;;;4.75;72.96
13604;BME280;24578;48.264;11.436;2023-01-30T11:21:11;96236.91;;;5.84;63.90
13604;BME280;24578;48.264;11.436;2023-01-30T11:24:21;96214.34;;;5.73;64.87
13604;BME280;24578;48.264;11.436;2023-01-30T11:27:30;96222.41;;;5.33;67.38
13604;BME280;24578;48.264;11.436;2023-01-30T11:30:35;96225.50;;;5.23;68.78
13604;BME280;24578;48.264;11.436;2023-01-30T11:33:37;96237.44;;;5.06;71.43
13604;BME280;24578;48.264;11.436;2023-01-30T11:36:40;96231.75;;;4.83;72.75
13604;BME280;24578;48.264;11.436;2023-01-30T11:39:50;96221.88;;;4.21;76.54
13604;BME280;24578;48.264;11.436;2023-01-30T11:43:02;96227.44;;;4.12;77.84
13604;BME280;24578;48.264;11.436;2023-01-30T11:46:06;96216.41;;;3.73;82.76
13604;BME280;24578;48.264;11.436;2023-01-30T11:49:14;96210.44;;;3.73;86.76
13604;BME280;24578;48.264;11.436;2023-01-30T11:52:18;96214.44;;;3.59;89.00
13604;BME280;24578;48.264;11.436;2023-01-30T11:55:22;96205.06;;;3.20;94.16
13604;BME280;24578;48.264;11.436;2023-01-30T11:58:32;96203.34;;;3.00;97.37
13604;BME280;24578;48.264;11.436;2023-01-30T12:01:35;96203.16;;;3.04;98.50
13604;BME280;24578;48.264;11.436;2023-01-30T12:04:36;96196.22;;;3.27;100.00
13604;BME280;24578;48.264;11.436;2023-01-30T12:07:37;96183.13;;;3.14;100.00
13604;BME280;24578;48.264;11.436;2023-01-30T12:10:43;96190.53;;;2.81;100.00
13604;BME280;24578;48.264;11.436;2023-01-30T12:13:44;96190.72;;;2.76;100.00
13604;BME280;24578;48.264;11.436;2023-01-30T12:19:57;96178.78;;;2.34;100.00
13604;BME280;24578;48.264;11.436;2023-01-30T12:26:20;96184.31;;;2.45;100.00
13604;BME280;24578;48.264;11.436;2023-01-30T12:29:33;96171.34;;;2.50;100.00
13604;BME280;24578;48.264;11.436;2023-01-30T12:32:35;96168.25;;;2.64;100.00
13604;BME280;24578;48.264;11.436;2023-01-30T12:35:58;96152.31;;;2.57;100.00
13604;BME280;24578;48.264;11.436;2023-01-30T12:45:30;96159.06;;;2.99;100.00
13604;BME280;24578;48.264;11.436;2023-01-30T12:49:04;96159.19;;;2.96;100.00
13604;BME280;24578;48.264;11.436;2023-01-30T12:58:49;96164.91;;;3.60;100.00
13604;BME280;24578;48.264;11.436;2023-01-30T13:12:03;96157.03;;;3.27;100.00
13604;BME280;24578;48.264;11.436;2023-01-30T13:18:29;96154.31;;;3.30;100.00
13604;BME280;24578;48.264;11.436;2023-01-30T13:21:46;96176.31;;;3.15;100.00
13604;BME280;24578;48.264;11.436;2023-01-30T13:28:39;96189.47;;;3.05;100.00
13604;BME280;24578;48.264;11.436;2023-01-30T13:31:52;96189.50;;;2.64;100.00
13604;BME280;24578;48.264;11.436;2023-01-30T13:34:58;96195.00;;;2.55;100.00
13604;BME280;24578;48.264;11.436;2023-01-30T13:38:03;96195.69;;;2.58;100.00
13604;BME280;24578;48.264;11.436;2023-01-30T13:41:05;96197.72;;;2.50;100.00
13604;BME280;24578;48.264;11.436;2023-01-30T13:44:35;96213.19;;;2.47;100.00
13604;BME280;24578;48.264;11.436;2023-01-30T13:51:26;96213.50;;;2.39;100.00
13604;BME280;24578;48.264;11.436;2023-01-30T13:58:25;96199.56;;;2.47;100.00
13604;BME280;24578;48.264;11.436;2023-01-30T14:01:18;96218.97;;;2.30;100.00
13604;BME280;24578;48.264;11.436;2023-01-30T14:07:32;96233.41;;;2.31;100.00
13604;BME280;24578;48.264;11.436;2023-01-30T14:10:38;96238.41;;;2.12;100.00
13604;BME280;24578;48.264;11.436;2023-01-30T14:13:51;96235.00;;;2.11;100.00
13604;BME280;24578;48.264;11.436;2023-01-30T14:16:56;96242.44;;;2.18;100.00
13604;BME280;24578;48.264;11.436;2023-01-30T14:20:01;96248.03;;;2.05;100.00
13604;BME280;24578;48.264;11.436;2023-01-30T14:23:23;96249.38;;;1.92;100.00
13604;BME280;24578;48.264;11.436;2023-01-30T14:32:55;96254.69;;;1.86;100.00
13604;BME280;24578;48.264;11.436;2023-01-30T14:39:37;96273.19;;;1.69;100.00
13604;BME280;24578;48.264;11.436;2023-01-30T14:42:38;96280.72;;;1.95;100.00
13604;BME280;24578;48.264;11.436;2023-01-30T14:45:59;96287.44;;;1.98;100.00
13604;BME280;24578;48.264;11.436;2023-01-30T14:49:18;96295.72;;;1.81;100.00
13604;BME280;24578;48.264;11.436;2023-01-30T14:52:33;96288.88;;;1.58;100.00
13604;BME280;24578;48.264;11.436;2023-01-30T14:55:35;96293.03;;;1.60;100.00
13604;BME280;24578;48.264;11.436;2023-01-30T14:58:36;96293.69;;;1.42;100.00
13604;BME280;24578;48.264;11.436;2023-01-30T15:05:09;96313.38;;;1.38;100.00
13604;BME280;24578;48.264;11.436;2023-01-30T15:08:22;96318.56;;;1.35;100.00
13604;BME280;24578;48.264;11.436;2023-01-30T15:11:30;96327.69;;;1.42;100.00
13604;BME280;24578;48.264;11.436;2023-01-30T15:22:23;96340.97;;;1.27;100.00
13604;BME280;24578;48.264;11.436;2023-01-30T15:25:52;96335.59;;;1.34;100.00
13604;BME280;24578;48.264;11.436;2023-01-30T15:32:32;96347.94;;;1.21;100.00
13604;BME280;24578;48.264;11.436;2023-01-30T15:35:32;96362.31;;;1.24;100.00
13604;BME280;24578;48.264;11.436;2023-01-30T15:38:33;96361.22;;;1.31;100.00
13604;BME280;24578;48.264;11.436;2023-01-30T15:41:38;96370.94;;;1.20;100.00
13604;BME280;24578;48.264;11.436;2023-01-30T15:51:25;96397.50;;;1.13;100.00
13604;BME280;24578;48.264;11.436;2023-01-30T15:54:27;96406.59;;;0.95;100.00
13604;BME280;24578;48.264;11.436;2023-01-30T15:57:33;96410.34;;;0.83;100.00
13604;BME280;24578;48.264;11.436;2023-01-30T16:00:56;96419.19;;;0.71;100.00
13604;BME280;24578;48.264;11.436;2023-01-30T16:03:58;96427.91;;;0.64;100.00
13604;BME280;24578;48.264;11.436;2023-01-30T16:07:22;96442.78;;;0.48;100.00
13604;BME280;24578;48.264;11.436;2023-01-30T16:10:29;96440.59;;;0.35;100.00
13604;BME280;24578;48.264;11.436;2023-01-30T16:13:29;96450.97;;;0.29;100.00
13604;BME280;24578;48.264;11.436;2023-01-30T16:16:34;96440.72;;;0.30;100.00
13604;BME280;24578;48.264;11.436;2023-01-30T16:19:37;96440.66;;;0.32;100.00
13604;BME280;24578;48.264;11.436;2023-01-30T16:22:43;96448.94;;;0.09;100.00
13604;BME280;24578;48.264;11.436;2023-01-30T16:25:46;96442.03;;;0.14;100.00
13604;BME280;24578;48.264;11.436;2023-01-30T16:29:00;96456.16;;;0.24;100.00
13604;BME280;24578;48.264;11.436;2023-01-30T16:32:12;96459.13;;;0.09;100.00
13604;BME280;24578;48.264;11.436;2023-01-30T16:35:16;96463.53;;;0.04;100.00
13604;BME280;24578;48.264;11.436;2023-01-30T16:38:47;96457.50;;;0.06;100.00
13604;BME280;24578;48.264;11.436;2023-01-30T16:41:54;96462.06;;;-0.05;100.00
13604;BME280;24578;48.264;11.436;2023-01-30T16:51:24;96472.44;;;0.20;100.00
13604;BME280;24578;48.264;11.436;2023-01-30T16:54:28;96485.75;;;0.30;100.00
13604;BME280;24578;48.264;11.436;2023-01-30T16:57:32;96495.63;;;0.41;100.00
13604;BME280;24578;48.264;11.436;2023-01-30T17:00:38;96491.25;;;0.46;100.00
13604;BME280;24578;48.264;11.436;2023-01-30T17:03:42;96494.41;;;0.54;100.00
13604;BME280;24578;48.264;11.436;2023-01-30T17:06:53;96498.75;;;0.51;100.00
13604;BME280;24578;48.264;11.436;2023-01-30T17:09:54;96493.13;;;0.69;100.00
13604;BME280;24578;48.264;11.436;2023-01-30T17:12:55;96507.25;;;0.51;100.00
13604;BME280;24578;48.264;11.436;2023-01-30T17:16:32;96523.84;;;0.33;100.00
13604;BME280;24578;48.264;11.436;2023-01-30T17:19:34;96521.00;;;0.44;100.00
13604;BME280;24578;48.264;11.436;2023-01-30T17:22:37;96518.22;;;0.53;100.00
13604;BME280;24578;48.264;11.436;2023-01-30T17:25:42;96531.91;;;0.49;100.00
13604;BME280;24578;48.264;11.436;2023-01-30T17:28:43;96527.91;;;0.40;100.00
13604;BME280;24578;48.264;11.436;2023-01-30T17:31:49;96532.06;;;0.43;100.00
13604;BME280;24578;48.264;11.436;2023-01-30T17:34:50;96536.16;;;0.49;100.00
13604;BME280;24578;48.264;11.436;2023-01-30T17:37:50;96527.81;;;0.43;100.00
13604;BME280;24578;48.264;11.436;2023-01-30T17:40:52;96525.44;;;0.37;100.00
13604;BME280;24578;48.264;11.436;2023-01-30T17:43:52;96521.06;;;0.42;100.00
13604;BME280;24578;48.264;11.436;2023-01-30T17:46:53;96512.91;;;0.29;100.00
13604;BME280;24578;48.264;11.436;2023-01-30T17:49:53;96518.75;;;0.33;100.00
13604;BME280;24578;48.264;11.436;2023-01-30T17:52:55;96527.38;;;0.27;100.00
13604;BME280;24578;48.264;11.436;2023-01-30T17:55:55;96526.50;;;0.28;100.00
13604;BME280;24578;48.264;11.436;2023-01-30T17:58:56;96536.88;;;0.22;100.00
13604;BME280;24578;48.264;11.436;2023-01-30T18:01:57;96536.69;;;0.28;100.00
13604;BME280;24578;48.264;11.436;2023-01-30T18:04:58;96546.81;;;0.32;100.00
13604;BME280;24578;48.264;11.436;2023-01-30T18:07:58;96539.09;;;0.35;100.00
13604;BME280;24578;48.264;11.436;2023-01-30T18:10:59;96548.75;;;0.23;100.00
13604;BME280;24578;48.264;11.436;2023-01-30T18:14:00;96549.81;;;0.14;100.00
13604;BME280;24578;48.264;11.436;2023-01-30T18:17:00;96553.72;;;0.26;100.00
13604;BME280;24578;48.264;11.436;2023-01-30T18:20:01;96546.59;;;0.39;100.00